Time;durP1;ratioP1;P1;durP2;ratioP2;P2;SDS_P1;SDS_P2;PMS_P1;PMS_P2;Temp;Humidity;BMP_temperature;BMP_pressure;BME280_temperature;BME280_humidity;BME280_pressure;Samples;Min_cycle;Max_cycle;Signal;HPM_P1;HPM_P2
2022/02/28 00:01:02;;;;;;;4.47;3.03;;;-1.80;95.40;;;;;;4936059;29;20054;-75
2022/02/28 00:03:28;;;;;;;11.98;3.30;;;-1.90;94.90;;;;;;4940877;29;20051;-78
2022/02/28 00:05:54;;;;;;;4.00;3.15;;;-1.80;95.10;;;;;;4945538;29;20032;-74
2022/02/28 00:08:21;;;;;;;6.18;3.30;;;-1.90;95.00;;;;;;4935533;28;20039;-74
2022/02/28 00:10:47;;;;;;;3.90;2.92;;;-2.00;95.20;;;;;;4936909;29;20304;-75
2022/02/28 00:13:13;;;;;;;4.80;3.05;;;-2.10;95.70;;;;;;4941966;29;20044;-74
2022/02/28 00:15:40;;;;;;;6.03;3.00;;;-2.10;96.30;;;;;;4935097;29;20027;-76
2022/02/28 00:18:06;;;;;;;3.80;2.95;;;-2.10;96.20;;;;;;4934278;29;20035;-74
2022/02/28 00:20:32;;;;;;;6.28;2.83;;;-2.10;96.30;;;;;;4935278;29;20392;-74
2022/02/28 00:22:59;;;;;;;11.18;4.00;;;-2.20;96.30;;;;;;4935571;29;20036;-75
2022/02/28 00:25:25;;;;;;;4.53;2.65;;;-2.20;96.20;;;;;;4935492;29;20536;-75
2022/02/28 00:27:53;;;;;;;4.75;2.53;;;-2.30;96.90;;;;;;4934014;29;20031;-76
2022/02/28 00:30:20;;;;;;;4.03;2.47;;;-2.40;97.10;;;;;;4935802;29;20059;-74
2022/02/28 00:32:46;;;;;;;5.68;3.15;;;-2.30;98.10;;;;;;4935235;29;20036;-76
2022/02/28 00:35:13;;;;;;;7.30;2.55;;;-2.40;98.00;;;;;;4935799;29;20034;-75
2022/02/28 00:37:39;;;;;;;2.63;2.10;;;-2.50;98.20;;;;;;4934665;29;20035;-75
2022/02/28 00:40:07;;;;;;;3.20;2.15;;;-2.50;99.00;;;;;;4936509;29;20039;-75
2022/02/28 00:42:33;;;;;;;6.43;3.28;;;-2.50;99.70;;;;;;4935244;29;20043;-75
2022/02/28 00:45:00;;;;;;;3.85;3.25;;;-2.60;99.90;;;;;;4935836;29;20046;-75
2022/02/28 00:47:26;;;;;;;6.90;3.50;;;-2.60;99.90;;;;;;4933865;29;20040;-76
2022/02/28 00:49:52;;;;;;;3.60;2.90;;;-2.60;99.90;;;;;;4933943;29;20027;-76
2022/02/28 00:52:19;;;;;;;4.90;3.03;;;-2.60;99.90;;;;;;4935101;29;20044;-76
2022/02/28 00:54:45;;;;;;;3.33;3.00;;;-2.60;99.90;;;;;;4933153;29;20043;-76
2022/02/28 00:57:11;;;;;;;4.45;3.47;;;-2.60;99.90;;;;;;4935063;29;20389;-76
2022/02/28 00:59:37;;;;;;;4.28;2.75;;;-2.70;99.90;;;;;;4933792;29;20035;-76
2022/02/28 01:02:04;;;;;;;5.28;3.22;;;-2.70;99.90;;;;;;4954344;28;20385;-76
2022/02/28 01:04:31;;;;;;;5.88;3.40;;;-2.70;99.90;;;;;;4934589;29;20051;-76
2022/02/28 01:06:58;;;;;;;4.30;2.75;;;-2.80;99.90;;;;;;4934866;29;20044;-77
2022/02/28 01:09:24;;;;;;;6.40;3.17;;;-2.90;99.90;;;;;;4935164;29;20397;-76
2022/02/28 01:11:50;;;;;;;8.25;3.33;;;-2.90;99.90;;;;;;4934982;29;20416;-76
2022/02/28 01:14:17;;;;;;;5.82;3.42;;;-2.90;99.90;;;;;;4936105;29;20054;-75
2022/02/28 01:16:43;;;;;;;4.72;3.20;;;-3.00;99.90;;;;;;4934315;29;20054;-76
2022/02/28 01:19:09;;;;;;;4.35;3.40;;;-2.90;99.90;;;;;;4933793;29;20042;-76
2022/02/28 01:21:35;;;;;;;4.85;3.30;;;-2.90;99.90;;;;;;4934389;29;20389;-76
2022/02/28 01:24:02;;;;;;;4.93;3.65;;;-2.90;99.90;;;;;;4947538;29;20042;-76
2022/02/28 01:26:28;;;;;;;5.13;3.42;;;-2.90;99.90;;;;;;4934365;29;20070;-78
2022/02/28 01:28:54;;;;;;;4.22;3.65;;;-2.80;99.90;;;;;;4933349;29;20051;-77
2022/02/28 01:31:20;;;;;;;6.60;3.95;;;-2.70;99.90;;;;;;4942248;29;20044;-76
2022/02/28 01:33:47;;;;;;;9.57;4.10;;;-2.60;99.90;;;;;;4932296;29;20043;-76
2022/02/28 01:36:13;;;;;;;6.05;3.38;;;-2.60;99.90;;;;;;4933250;29;20051;-76
2022/02/28 01:38:39;;;;;;;7.93;3.42;;;-2.60;99.90;;;;;;4932169;29;20055;-76
2022/02/28 01:41:06;;;;;;;5.50;3.55;;;-2.70;99.90;;;;;;4937914;29;20036;-77
2022/02/28 01:43:32;;;;;;;8.07;3.40;;;-2.80;99.90;;;;;;4933921;29;20393;-77
2022/02/28 01:45:58;;;;;;;5.07;3.33;;;-2.80;99.90;;;;;;4954325;28;20043;-77
2022/02/28 01:48:24;;;;;;;3.80;3.13;;;-2.80;99.90;;;;;;4937292;29;20058;-76
2022/02/28 01:50:51;;;;;;;5.38;3.78;;;-2.90;99.90;;;;;;4936687;29;20126;-76
2022/02/28 01:53:19;;;;;;;5.72;3.35;;;-2.90;99.90;;;;;;4940283;29;20480;-76
2022/02/28 01:55:46;;;;;;;7.18;3.38;;;-2.90;99.90;;;;;;4950671;29;20031;-76
2022/02/28 01:58:12;;;;;;;5.78;3.42;;;-2.80;99.90;;;;;;4948153;28;20112;-76
2022/02/28 02:00:38;;;;;;;4.65;3.28;;;-2.80;99.90;;;;;;4952028;28;20055;-76
2022/02/28 02:03:05;;;;;;;5.63;3.60;;;-2.80;99.90;;;;;;4957009;28;20398;-76
2022/02/28 02:05:32;;;;;;;5.07;3.38;;;-2.80;99.90;;;;;;4937312;29;20036;-78
2022/02/28 02:08:03;;;;;;;4.35;2.83;;;-2.90;99.90;;;;;;4947586;28;20044;-76
2022/02/28 02:10:29;;;;;;;5.43;3.78;;;-3.00;99.90;;;;;;4933423;29;20039;-78
2022/02/28 02:12:56;;;;;;;5.10;3.22;;;-3.00;99.90;;;;;;4948486;28;20047;-76
2022/02/28 02:15:23;;;;;;;7.25;4.90;;;-3.10;99.90;;;;;;4948804;28;20047;-77
2022/02/28 02:17:49;;;;;;;6.07;3.90;;;-3.00;99.90;;;;;;4935164;29;20046;-76
2022/02/28 02:20:21;;;;;;;4.03;3.63;;;-3.10;99.90;;;;;;4959250;28;20039;-76
2022/02/28 02:23:05;;;;;;;4.53;4.03;;;-3.00;99.90;;;;;;4934078;29;20373;-77
2022/02/28 02:25:34;;;;;;;5.13;3.88;;;-3.00;99.90;;;;;;4944853;28;20485;-77
2022/02/28 02:28:02;;;;;;;5.30;3.53;;;-3.10;99.90;;;;;;4940922;29;20052;-76
2022/02/28 02:30:29;;;;;;;6.47;3.72;;;-3.10;99.90;;;;;;4954849;28;20054;-79
2022/02/28 02:32:57;;;;;;;5.00;4.40;;;-3.10;99.90;;;;;;4938524;29;20520;-76
2022/02/28 02:35:23;;;;;;;6.15;3.95;;;-3.10;99.90;;;;;;4936267;29;20036;-76
2022/02/28 02:37:50;;;;;;;6.05;4.72;;;-3.10;99.90;;;;;;4950172;28;20036;-76
2022/02/28 02:40:16;;;;;;;6.05;4.18;;;-3.20;99.90;;;;;;4937741;29;20032;-76
2022/02/28 02:42:43;;;;;;;6.95;4.80;;;-3.30;99.90;;;;;;4937581;29;20042;-76
2022/02/28 02:45:12;;;;;;;5.28;4.15;;;-3.30;99.90;;;;;;4956511;28;20048;-76
2022/02/28 02:47:38;;;;;;;6.18;4.70;;;-3.40;99.90;;;;;;4934308;29;20416;-76
2022/02/28 02:50:11;;;;;;;11.88;5.10;;;-3.30;99.90;;;;;;4943200;29;20043;-76
2022/02/28 02:52:37;;;;;;;9.35;4.63;;;-3.40;99.90;;;;;;4936482;29;20139;-77
2022/02/28 02:55:05;;;;;;;6.78;4.88;;;-3.40;99.90;;;;;;4946594;29;20066;-77
2022/02/28 02:57:31;;;;;;;7.38;3.92;;;-3.40;99.90;;;;;;4961582;28;20043;-79
2022/02/28 03:00:06;;;;;;;7.57;4.10;;;-3.50;99.90;;;;;;4936382;29;20046;-77
2022/02/28 03:02:37;;;;;;;6.15;3.63;;;-3.50;99.90;;;;;;4939687;28;20047;-76
2022/02/28 03:05:05;;;;;;;7.45;4.53;;;-3.60;99.90;;;;;;4946420;29;20054;-76
2022/02/28 03:07:31;;;;;;;4.05;3.42;;;-3.70;99.90;;;;;;4953673;28;20039;-78
2022/02/28 03:09:58;;;;;;;6.18;4.47;;;-3.70;99.90;;;;;;4938267;29;20048;-76
2022/02/28 03:12:25;;;;;;;9.68;4.15;;;-3.70;99.90;;;;;;4956156;28;20048;-77
2022/02/28 03:14:53;;;;;;;7.35;5.07;;;-3.70;99.90;;;;;;4939941;29;20048;-76
2022/02/28 03:17:20;;;;;;;7.05;4.35;;;-3.70;99.90;;;;;;4951302;28;20405;-76
2022/02/28 03:19:46;;;;;;;6.35;4.45;;;-3.60;99.90;;;;;;4959551;28;20054;-76
2022/02/28 03:22:13;;;;;;;5.97;5.10;;;-3.60;99.90;;;;;;4942294;29;20055;-76
2022/02/28 03:24:44;;;;;;;12.77;5.20;;;-3.50;99.90;;;;;;4935254;29;20036;-76
2022/02/28 03:27:11;;;;;;;15.32;5.18;;;-3.50;99.90;;;;;;4941538;29;20051;-76
2022/02/28 03:29:37;;;;;;;7.13;5.15;;;-3.50;99.90;;;;;;4949343;28;20405;-77
2022/02/28 03:32:05;;;;;;;6.10;4.85;;;-3.60;99.90;;;;;;4935468;29;20047;-77
2022/02/28 03:34:31;;;;;;;9.77;5.40;;;-3.50;99.90;;;;;;4934987;29;20048;-78
2022/02/28 03:36:58;;;;;;;8.52;5.30;;;-3.40;99.90;;;;;;4950701;28;20043;-77
2022/02/28 03:39:24;;;;;;;6.82;4.35;;;-3.30;99.90;;;;;;4956141;28;20055;-77
2022/02/28 03:41:55;;;;;;;8.52;5.05;;;-3.30;99.90;;;;;;4959622;28;20047;-77
2022/02/28 03:44:22;;;;;;;8.32;4.93;;;-3.30;99.90;;;;;;4947870;29;20047;-77
2022/02/28 03:46:51;;;;;;;11.60;5.45;;;-3.40;99.90;;;;;;4951295;29;20039;-77
2022/02/28 03:49:30;;;;;;;5.05;4.18;;;-3.40;99.90;;;;;;4946068;28;20042;-79
2022/02/28 03:52:00;;;;;;;5.77;3.97;;;-3.50;99.90;;;;;;4935239;29;20055;-76
2022/02/28 03:54:52;;;;;;;15.73;5.03;;;-3.60;99.90;;;;;;4933760;29;20040;-76
2022/02/28 03:57:19;;;;;;;5.53;4.45;;;-3.60;99.90;;;;;;4934177;29;20043;-77
2022/02/28 03:59:48;;;;;;;6.45;4.80;;;-3.60;99.90;;;;;;4948985;28;20308;-77
2022/02/28 04:02:14;;;;;;;6.22;4.78;;;-3.70;99.90;;;;;;4950736;28;20058;-78
2022/02/28 04:04:45;;;;;;;8.32;4.22;;;-3.70;99.90;;;;;;4934423;29;20059;-76
2022/02/28 04:07:11;;;;;;;5.00;4.38;;;-3.70;99.90;;;;;;4937308;29;20055;-76
2022/02/28 04:09:39;;;;;;;9.30;5.00;;;-3.70;99.90;;;;;;4934887;29;20036;-77
2022/02/28 04:12:08;;;;;;;6.90;4.72;;;-3.80;99.90;;;;;;4934846;29;20051;-76
2022/02/28 04:14:35;;;;;;;5.97;5.35;;;-3.70;99.90;;;;;;4935493;29;20039;-77
2022/02/28 04:17:02;;;;;;;5.05;4.38;;;-3.80;99.90;;;;;;4949916;28;20043;-77
2022/02/28 04:19:54;;;;;;;6.35;4.65;;;-3.80;99.90;;;;;;4929461;29;20050;-76
2022/02/28 04:22:23;;;;;;;13.27;6.00;;;-3.90;99.90;;;;;;4943802;29;20409;-76
2022/02/28 04:24:49;;;;;;;6.50;4.75;;;-3.90;99.90;;;;;;4939716;29;20036;-77
2022/02/28 04:27:16;;;;;;;6.18;4.93;;;-3.90;99.90;;;;;;4934116;29;20036;-77
2022/02/28 04:29:43;;;;;;;6.95;4.55;;;-4.00;99.90;;;;;;4934501;29;20039;-76
2022/02/28 04:32:13;;;;;;;5.45;4.95;;;-4.00;99.90;;;;;;4934191;29;20074;-76
2022/02/28 04:34:51;;;;;;;7.20;5.43;;;-4.10;99.90;;;;;;4946403;29;20131;-77
2022/02/28 04:37:19;;;;;;;7.43;5.05;;;-4.00;99.90;;;;;;4937304;29;20047;-79
2022/02/28 04:39:46;;;;;;;5.97;4.90;;;-4.10;99.90;;;;;;4935302;29;20035;-76
2022/02/28 04:42:13;;;;;;;6.38;5.50;;;-4.00;99.90;;;;;;4949977;28;20489;-76
2022/02/28 04:44:40;;;;;;;7.20;5.13;;;-4.00;99.90;;;;;;4945205;29;20054;-76
2022/02/28 04:47:07;;;;;;;8.13;4.65;;;-4.00;99.90;;;;;;4925563;29;20043;-77
2022/02/28 04:49:47;;;;;;;4.07;3.70;;;-3.90;99.90;;;;;;4944547;28;20039;-77
2022/02/28 04:52:13;;;;;;;8.02;7.22;;;-4.00;99.90;;;;;;4938522;29;20485;-76
2022/02/28 04:54:41;;;;;;;6.60;5.55;;;-4.00;99.90;;;;;;4935626;29;20051;-76
2022/02/28 04:57:07;;;;;;;5.03;4.55;;;-4.00;99.90;;;;;;4955637;28;20481;-77
2022/02/28 04:59:33;;;;;;;8.25;6.03;;;-4.00;99.90;;;;;;4932373;29;20492;-77
2022/02/28 05:01:59;;;;;;;8.50;5.95;;;-3.90;99.90;;;;;;4949688;28;20492;-76
2022/02/28 05:04:49;;;;;;;12.65;6.97;;;-4.00;99.90;;;;;;4935155;29;20059;-76
2022/02/28 05:07:15;;;;;;;9.57;7.20;;;-4.00;99.90;;;;;;4952067;28;20052;-76
2022/02/28 05:09:41;;;;;;;6.97;6.25;;;-4.10;99.90;;;;;;4932587;29;20044;-76
2022/02/28 05:12:09;;;;;;;6.40;5.70;;;-4.20;99.90;;;;;;4949109;28;20048;-76
2022/02/28 05:14:36;;;;;;;8.85;6.13;;;-4.10;99.90;;;;;;4934735;29;20048;-78
2022/02/28 05:17:02;;;;;;;8.65;6.68;;;-4.10;99.90;;;;;;4942222;29;20035;-78
2022/02/28 05:19:32;;;;;;;9.80;5.82;;;-4.20;99.90;;;;;;4929174;29;20039;-79
2022/02/28 05:22:02;;;;;;;7.22;6.15;;;-4.20;99.90;;;;;;4941100;29;20046;-78
2022/02/28 05:24:34;;;;;;;7.82;6.40;;;-4.20;99.90;;;;;;4938761;29;20046;-79
2022/02/28 05:27:01;;;;;;;8.05;6.15;;;-4.20;99.90;;;;;;4937076;29;20043;-78
2022/02/28 05:29:28;;;;;;;7.47;6.70;;;-4.10;99.90;;;;;;4936688;29;20481;-77
2022/02/28 05:31:55;;;;;;;9.90;7.40;;;-4.00;99.90;;;;;;4942720;29;20043;-78
2022/02/28 05:34:50;;;;;;;10.77;5.97;;;-4.10;99.90;;;;;;4925612;29;20047;-77
2022/02/28 05:37:23;;;;;;;8.70;7.18;;;-4.10;99.90;;;;;;4958583;28;20512;-79
2022/02/28 05:39:55;;;;;;;7.35;6.32;;;-4.10;99.90;;;;;;4933040;29;20070;-78
2022/02/28 05:42:25;;;;;;;15.55;10.50;;;-4.10;99.90;;;;;;4941921;29;20047;-77
2022/02/28 05:44:54;;;;;;;9.40;7.30;;;-4.10;99.90;;;;;;4935416;29;20051;-79
2022/02/28 05:47:21;;;;;;;10.15;8.00;;;-4.10;99.90;;;;;;4935094;29;20051;-77
2022/02/28 05:49:50;;;;;;;10.45;7.53;;;-4.10;99.90;;;;;;4933084;29;20055;-77
2022/02/28 05:52:16;;;;;;;9.07;7.05;;;-4.10;99.90;;;;;;4934835;29;20153;-77
2022/02/28 05:54:43;;;;;;;7.50;6.53;;;-4.20;99.90;;;;;;4942769;29;20385;-77
2022/02/28 05:57:09;;;;;;;7.47;6.78;;;-4.20;99.90;;;;;;4933510;29;20034;-79
2022/02/28 05:59:35;;;;;;;8.32;6.57;;;-4.20;99.90;;;;;;4950377;28;20035;-78
2022/02/28 06:02:01;;;;;;;9.55;6.72;;;-4.10;99.90;;;;;;4937429;29;20052;-77
2022/02/28 06:04:28;;;;;;;10.70;9.43;;;-4.10;99.90;;;;;;4952693;28;20051;-77
2022/02/28 06:06:54;;;;;;;10.02;7.60;;;-4.10;99.90;;;;;;4937644;29;20490;-78
2022/02/28 06:09:20;;;;;;;8.18;7.00;;;-4.10;99.90;;;;;;4937467;29;20036;-78
2022/02/28 06:11:48;;;;;;;8.38;6.55;;;-4.10;99.90;;;;;;4940178;29;20040;-77
2022/02/28 06:14:14;;;;;;;15.65;7.45;;;-4.10;99.90;;;;;;4932020;29;20043;-78
2022/02/28 06:16:40;;;;;;;9.48;6.78;;;-4.20;99.90;;;;;;4947372;29;20042;-78
2022/02/28 06:19:07;;;;;;;7.68;6.63;;;-4.20;99.90;;;;;;4954323;29;20031;-77
2022/02/28 06:21:33;;;;;;;8.68;7.43;;;-4.20;99.90;;;;;;4940661;29;20039;-77
2022/02/28 06:23:59;;;;;;;17.02;8.63;;;-4.20;99.90;;;;;;4938263;29;20051;-78
2022/02/28 06:26:26;;;;;;;11.38;8.30;;;-4.20;99.90;;;;;;4933901;29;20054;-77
2022/02/28 06:28:52;;;;;;;11.70;8.95;;;-4.20;99.90;;;;;;4943714;29;21052;-79
2022/02/28 06:31:20;;;;;;;11.20;9.05;;;-4.20;99.90;;;;;;4944586;29;20044;-78
2022/02/28 06:33:47;;;;;;;11.88;7.38;;;-4.10;99.90;;;;;;4944890;29;20051;-78
2022/02/28 06:36:13;;;;;;;12.27;8.05;;;-4.20;99.90;;;;;;4937269;29;20055;-76
2022/02/28 06:38:39;;;;;;;12.07;8.43;;;-4.20;99.90;;;;;;4935697;29;20039;-76
2022/02/28 06:41:05;;;;;;;12.60;9.00;;;-4.20;99.90;;;;;;4952994;28;20051;-77
2022/02/28 06:43:32;;;;;;;11.35;10.38;;;-4.20;99.90;;;;;;4937364;29;20079;-79
2022/02/28 06:45:58;;;;;;;12.43;10.30;;;-4.20;99.90;;;;;;4961233;28;20031;-77
2022/02/28 06:48:24;;;;;;;15.15;10.60;;;-4.10;99.90;;;;;;4943211;29;20042;-77
2022/02/28 06:50:50;;;;;;;12.32;9.93;;;-4.00;99.90;;;;;;4939028;29;20031;-77
2022/02/28 06:53:18;;;;;;;12.55;10.65;;;-3.90;99.90;;;;;;4954065;29;20488;-77
2022/02/28 06:55:52;;;;;;;11.02;9.55;;;-3.80;99.90;;;;;;4944422;29;20040;-76
2022/02/28 06:58:21;;;;;;;18.10;11.18;;;-3.70;99.90;;;;;;4936475;29;20043;-75
2022/02/28 07:00:52;;;;;;;13.15;10.15;;;-3.60;99.90;;;;;;4936940;29;20119;-75
2022/02/28 07:03:39;;;;;;;9.05;8.25;;;-3.10;99.90;;;;;;4937947;29;20047;-78
2022/02/28 07:06:05;;;;;;;9.05;7.82;;;-2.20;99.90;;;;;;4936877;29;20043;-75
2022/02/28 07:08:34;;;;;;;16.85;7.35;;;-1.80;99.90;;;;;;4938551;29;20031;-78
2022/02/28 07:11:00;;;;;;;9.65;6.47;;;-1.20;99.90;;;;;;4948667;29;20050;-76
2022/02/28 07:13:27;;;;;;;15.52;6.63;;;-0.80;98.80;;;;;;4946568;28;20043;-75
2022/02/28 07:15:54;;;;;;;5.53;5.03;;;-0.60;96.40;;;;;;4945370;29;20036;-75
2022/02/28 07:18:20;;;;;;;7.10;5.93;;;-0.40;94.60;;;;;;4945036;29;20039;-77
2022/02/28 07:20:46;;;;;;;34.63;10.73;;;-0.20;93.60;;;;;;4947361;29;20031;-76
2022/02/28 07:23:13;;;;;;;47.65;12.20;;;0.10;93.20;;;;;;4951865;29;20495;-76
2022/02/28 07:25:39;;;;;;;40.13;10.63;;;0.50;92.10;;;;;;4938772;29;20065;-75
2022/02/28 07:28:05;;;;;;;12.73;6.05;;;1.00;90.40;;;;;;4945252;29;20038;-76
2022/02/28 07:30:32;;;;;;;13.50;5.60;;;1.50;86.20;;;;;;4935792;29;20503;-76
2022/02/28 07:32:58;;;;;;;9.57;6.30;;;1.80;83.00;;;;;;4943041;29;20055;-76
2022/02/28 07:35:24;;;;;;;9.93;5.25;;;1.60;82.30;;;;;;4948920;29;20412;-76
2022/02/28 07:37:50;;;;;;;5.03;4.53;;;1.80;81.70;;;;;;4947567;29;20073;-76
2022/02/28 07:40:17;;;;;;;18.30;8.00;;;2.00;80.70;;;;;;4937943;29;20048;-75
2022/02/28 07:42:43;;;;;;;13.98;7.15;;;2.10;80.20;;;;;;4944698;29;20040;-76
2022/02/28 07:45:10;;;;;;;10.50;6.55;;;2.00;79.50;;;;;;4944721;29;20054;-75
2022/02/28 07:47:36;;;;;;;6.70;5.68;;;1.90;80.50;;;;;;4938650;29;20043;-76
2022/02/28 07:50:02;;;;;;;7.75;5.38;;;2.40;80.30;;;;;;4939817;29;20044;-75
2022/02/28 07:52:29;;;;;;;5.43;4.95;;;2.70;79.30;;;;;;4939299;29;20078;-75
2022/02/28 07:54:55;;;;;;;6.25;5.00;;;3.50;77.80;;;;;;4942606;29;20047;-76
2022/02/28 07:57:22;;;;;;;5.45;4.95;;;4.00;75.70;;;;;;4936810;29;20039;-75
2022/02/28 07:59:48;;;;;;;5.20;4.75;;;4.50;73.80;;;;;;4959782;28;20050;-75
2022/02/28 08:02:14;;;;;;;7.38;6.25;;;5.30;70.90;;;;;;4937411;29;20068;-75
2022/02/28 08:04:40;;;;;;;7.05;6.35;;;5.70;68.70;;;;;;4937915;29;20031;-75
2022/02/28 08:07:06;;;;;;;9.35;5.95;;;5.90;67.00;;;;;;4942170;29;20027;-75
2022/02/28 08:09:33;;;;;;;6.03;5.43;;;5.80;66.10;;;;;;4952845;28;20035;-76
2022/02/28 08:11:59;;;;;;;6.35;5.75;;;5.90;65.60;;;;;;4935688;29;20036;-76
2022/02/28 08:14:26;;;;;;;13.48;7.15;;;6.50;62.90;;;;;;4936006;29;20046;-74
2022/02/28 08:16:52;;;;;;;7.63;6.82;;;6.70;61.40;;;;;;4949777;28;20587;-74
2022/02/28 08:19:19;;;;;;;13.27;9.13;;;6.70;58.10;;;;;;4951113;28;20032;-74
2022/02/28 08:21:45;;;;;;;7.43;6.65;;;7.10;57.60;;;;;;4934945;29;20393;-74
2022/02/28 08:24:12;;;;;;;6.85;6.25;;;7.30;56.50;;;;;;4934651;29;20042;-74
2022/02/28 08:26:38;;;;;;;8.60;7.15;;;7.50;55.90;;;;;;4935483;29;20417;-75
2022/02/28 08:29:04;;;;;;;8.05;7.25;;;7.60;55.80;;;;;;4945441;28;20044;-74
2022/02/28 08:31:30;;;;;;;8.57;7.68;;;8.40;53.50;;;;;;4943985;29;20035;-76
2022/02/28 08:33:56;;;;;;;8.15;7.00;;;9.10;51.60;;;;;;4939122;29;20051;-74
2022/02/28 08:36:23;;;;;;;9.40;6.57;;;9.10;51.00;;;;;;4935899;29;20462;-74
2022/02/28 08:38:52;;;;;;;8.05;7.35;;;8.90;50.90;;;;;;4934904;29;20047;-74
2022/02/28 08:41:18;;;;;;;7.10;6.40;;;8.70;51.30;;;;;;4935637;29;20043;-74
2022/02/28 08:43:45;;;;;;;7.18;6.40;;;9.30;50.00;;;;;;4939458;29;20059;-75
2022/02/28 08:46:11;;;;;;;7.50;6.70;;;10.10;47.90;;;;;;4936490;29;20031;-74
2022/02/28 08:48:37;;;;;;;8.25;7.38;;;10.50;47.50;;;;;;4934583;29;20487;-75
2022/02/28 08:51:04;;;;;;;7.30;6.68;;;11.30;45.50;;;;;;4935727;29;20024;-74
2022/02/28 08:53:30;;;;;;;9.25;7.13;;;10.80;45.20;;;;;;4934946;29;20398;-74
2022/02/28 08:55:56;;;;;;;9.10;6.82;;;11.00;45.70;;;;;;4935841;29;20067;-75
2022/02/28 08:58:23;;;;;;;7.80;6.85;;;11.20;45.30;;;;;;4936960;29;20031;-74
2022/02/28 09:00:50;;;;;;;7.68;6.97;;;11.90;44.70;;;;;;4937194;29;20052;-75
2022/02/28 09:03:17;;;;;;;11.90;7.97;;;11.70;43.30;;;;;;4935401;29;20039;-75
2022/02/28 09:05:43;;;;;;;17.42;9.20;;;10.10;45.90;;;;;;4935007;29;20476;-75
2022/02/28 09:08:09;;;;;;;9.02;8.13;;;9.90;46.70;;;;;;4940486;29;20051;-74
2022/02/28 09:10:36;;;;;;;8.82;7.15;;;9.00;48.30;;;;;;4938266;29;20039;-75
2022/02/28 09:13:02;;;;;;;8.05;7.20;;;10.00;46.70;;;;;;4934886;29;20043;-75
2022/02/28 09:15:29;;;;;;;7.93;7.10;;;10.20;46.50;;;;;;4935239;29;20036;-74
2022/02/28 09:17:56;;;;;;;16.15;8.60;;;10.40;46.00;;;;;;4933998;29;20461;-75
2022/02/28 09:20:22;;;;;;;9.38;8.48;;;10.60;46.10;;;;;;4934281;29;20048;-74
2022/02/28 09:22:48;;;;;;;9.70;7.47;;;10.60;46.50;;;;;;4950298;28;20040;-74
2022/02/28 09:25:14;;;;;;;20.02;9.70;;;10.80;45.80;;;;;;4935077;29;20032;-74
2022/02/28 09:27:41;;;;;;;13.85;10.20;;;10.80;46.20;;;;;;4933181;29;20027;-74
2022/02/28 09:30:08;;;;;;;12.35;8.15;;;10.90;46.30;;;;;;4935031;29;20039;-74
2022/02/28 09:32:35;;;;;;;10.23;7.28;;;11.30;45.60;;;;;;4933029;29;20047;-74
2022/02/28 09:35:01;;;;;;;10.75;8.27;;;11.60;44.70;;;;;;4934917;29;20034;-74
2022/02/28 09:37:27;;;;;;;9.20;8.32;;;10.60;45.20;;;;;;4937325;29;20461;-74
2022/02/28 09:39:54;;;;;;;10.43;8.73;;;10.20;45.30;;;;;;4935050;29;20044;-74
2022/02/28 09:42:37;;;;;;;9.32;8.15;;;9.50;46.30;;;;;;4934465;29;20051;-74
2022/02/28 09:45:23;;;;;;;9.70;8.80;;;10.50;46.50;;;;;;4935072;29;20036;-74
2022/02/28 09:48:25;;;;;;;8.85;8.05;;;11.20;44.50;;;;;;4922799;29;20040;-74
2022/02/28 09:51:10;;;;;;;8.48;7.78;;;10.20;45.00;;;;;;4933111;29;20063;-74
2022/02/28 09:53:59;;;;;;;11.40;9.70;;;9.30;46.30;;;;;;4936388;29;20052;-73
2022/02/28 09:56:44;;;;;;;10.65;9.02;;;9.00;47.70;;;;;;4955714;28;20071;-73
2022/02/28 09:59:36;;;;;;;9.68;8.77;;;8.50;47.70;;;;;;4933731;29;20054;-75
2022/02/28 10:02:08;;;;;;;10.70;9.60;;;8.00;48.70;;;;;;4950829;28;20055;-77
2022/02/28 10:04:35;;;;;;;11.10;10.05;;;7.80;48.60;;;;;;4949564;29;20050;-75
2022/02/28 10:07:21;;;;;;;10.30;9.27;;;7.60;48.70;;;;;;4944705;29;20038;-75
2022/02/28 10:10:10;;;;;;;16.08;9.85;;;7.70;48.90;;;;;;4946298;29;20038;-73
2022/02/28 10:12:37;;;;;;;10.48;9.20;;;7.90;48.70;;;;;;4947589;29;20035;-73
2022/02/28 10:15:09;;;;;;;11.93;9.93;;;8.00;48.00;;;;;;4942836;29;20411;-72
2022/02/28 10:17:54;;;;;;;10.40;9.40;;;8.00;48.90;;;;;;4950288;28;20035;-74
2022/02/28 10:20:23;;;;;;;10.18;9.15;;;8.10;48.70;;;;;;4940396;29;20032;-73
2022/02/28 10:22:58;;;;;;;17.17;9.90;;;8.20;48.10;;;;;;4957876;28;20023;-74
2022/02/28 10:25:48;;;;;;;10.32;9.30;;;8.10;47.50;;;;;;4937077;29;20034;-73
2022/02/28 10:28:40;;;;;;;11.70;9.30;;;8.00;47.90;;;;;;4945854;29;20032;-73
2022/02/28 10:31:40;;;;;;;9.60;8.70;;;7.90;48.40;;;;;;4946210;29;20035;-75
2022/02/28 10:34:26;;;;;;;9.80;8.80;;;8.20;48.60;;;;;;4944774;29;20056;-75
2022/02/28 10:37:13;;;;;;;9.18;8.27;;;8.30;47.30;;;;;;4935583;28;20040;-73
2022/02/28 10:39:42;;;;;;;9.00;8.20;;;8.30;46.90;;;;;;4933901;29;20066;-74
2022/02/28 10:42:16;;;;;;;9.95;9.00;;;8.60;47.00;;;;;;4934659;29;20059;-74
2022/02/28 10:44:43;;;;;;;10.68;9.65;;;8.70;46.50;;;;;;4933716;29;20046;-73
2022/02/28 10:47:12;;;;;;;16.77;9.82;;;8.70;46.50;;;;;;4935842;29;20036;-73
2022/02/28 10:49:39;;;;;;;11.27;10.07;;;8.60;46.20;;;;;;4937490;29;20058;-72
2022/02/28 10:52:08;;;;;;;10.57;9.20;;;8.70;46.00;;;;;;4937594;29;20040;-73
2022/02/28 10:54:40;;;;;;;11.45;9.27;;;8.60;46.10;;;;;;4936083;29;20044;-73
2022/02/28 10:57:16;;;;;;;12.32;8.48;;;8.70;45.50;;;;;;4936388;29;20034;-73
2022/02/28 10:59:49;;;;;;;10.13;8.90;;;8.90;45.70;;;;;;4936524;29;20032;-73
2022/02/28 11:02:27;;;;;;;9.98;9.07;;;9.00;44.50;;;;;;4940342;29;20056;-73
2022/02/28 11:05:10;;;;;;;10.32;9.32;;;9.00;45.60;;;;;;4941691;29;20473;-74
2022/02/28 11:07:48;;;;;;;9.10;7.95;;;8.90;44.40;;;;;;4936336;29;20042;-74
2022/02/28 11:10:16;;;;;;;9.13;8.20;;;8.90;45.00;;;;;;4937741;29;20036;-73
2022/02/28 11:12:43;;;;;;;10.23;9.23;;;9.00;45.20;;;;;;4936738;29;20510;-73
2022/02/28 11:15:19;;;;;;;11.15;9.65;;;8.90;44.50;;;;;;4942891;29;20047;-73
2022/02/28 11:17:50;;;;;;;9.43;8.50;;;8.90;45.40;;;;;;4935871;29;20043;-74
2022/02/28 11:20:18;;;;;;;10.90;8.65;;;8.90;45.30;;;;;;4935913;29;20047;-73
2022/02/28 11:22:47;;;;;;;14.52;8.98;;;9.10;44.70;;;;;;4936945;29;20516;-73
2022/02/28 11:25:17;;;;;;;8.85;8.07;;;9.10;44.00;;;;;;4937117;29;20495;-73
2022/02/28 11:27:45;;;;;;;10.48;7.97;;;9.10;44.60;;;;;;4935589;29;20050;-74
2022/02/28 11:30:15;;;;;;;12.43;9.50;;;9.00;44.80;;;;;;4937089;29;20036;-73
2022/02/28 11:32:42;;;;;;;9.82;8.93;;;9.00;45.10;;;;;;4936828;29;20044;-74
2022/02/28 11:35:39;;;;;;;9.45;8.48;;;9.00;44.90;;;;;;4936104;29;20047;-75
2022/02/28 11:38:19;;;;;;;10.35;8.02;;;9.20;44.60;;;;;;4938066;29;20023;-73
2022/02/28 11:40:47;;;;;;;8.75;7.95;;;9.40;44.00;;;;;;4946745;29;20031;-76
2022/02/28 11:43:14;;;;;;;8.05;7.40;;;9.60;44.40;;;;;;4942099;29;20043;-74
2022/02/28 11:45:59;;;;;;;11.55;9.30;;;9.70;44.00;;;;;;4934309;29;20043;-73
2022/02/28 11:48:34;;;;;;;9.88;8.82;;;9.50;44.00;;;;;;4953464;29;20039;-73
2022/02/28 11:51:20;;;;;;;10.45;9.43;;;9.20;43.70;;;;;;4936241;29;20035;-73
2022/02/28 11:53:50;;;;;;;8.48;7.68;;;9.10;44.40;;;;;;4946085;29;20452;-72
2022/02/28 11:56:16;;;;;;;10.30;9.20;;;9.30;44.10;;;;;;4936421;29;20043;-73
2022/02/28 11:58:54;;;;;;;9.00;7.85;;;9.30;44.20;;;;;;4934471;29;20039;-73
2022/02/28 12:01:35;;;;;;;11.43;10.32;;;9.30;44.50;;;;;;4935940;29;20059;-73
2022/02/28 12:04:07;;;;;;;10.35;9.35;;;9.40;44.60;;;;;;4935872;29;20749;-74
2022/02/28 12:06:59;;;;;;;9.45;8.45;;;9.80;44.30;;;;;;4935824;29;20031;-76
2022/02/28 12:09:31;;;;;;;10.23;7.80;;;9.90;43.80;;;;;;4936684;29;20039;-74
2022/02/28 12:12:23;;;;;;;14.43;13.02;;;9.80;43.30;;;;;;4948682;29;20062;-74
2022/02/28 12:15:02;;;;;;;10.35;9.43;;;9.60;43.50;;;;;;4935312;29;20048;-75
2022/02/28 12:17:40;;;;;;;9.23;8.40;;;9.80;43.80;;;;;;4939530;29;20036;-75
2022/02/28 12:20:34;;;;;;;12.80;8.88;;;9.80;44.40;;;;;;4936606;29;20035;-74
2022/02/28 12:23:08;;;;;;;8.50;7.70;;;10.00;44.00;;;;;;4934548;29;20031;-74
2022/02/28 12:25:46;;;;;;;9.63;8.55;;;10.00;43.30;;;;;;4936337;29;20036;-74
2022/02/28 12:28:27;;;;;;;8.63;7.45;;;10.00;43.40;;;;;;4934569;29;20048;-74
2022/02/28 12:31:05;;;;;;;9.38;8.55;;;10.00;43.40;;;;;;4936101;29;20027;-74
2022/02/28 12:33:34;;;;;;;8.55;7.75;;;10.10;43.40;;;;;;4936083;29;20066;-74
2022/02/28 12:36:14;;;;;;;10.18;8.25;;;10.00;43.60;;;;;;4935666;29;20416;-74
2022/02/28 12:38:54;;;;;;;8.40;7.60;;;10.10;44.10;;;;;;4934138;29;20034;-74
2022/02/28 12:41:25;;;;;;;11.20;8.70;;;10.10;42.90;;;;;;4935791;29;20500;-74
2022/02/28 12:43:53;;;;;;;8.18;7.38;;;10.20;43.70;;;;;;4935101;29;20035;-74
2022/02/28 12:46:24;;;;;;;7.60;6.88;;;10.30;43.10;;;;;;4935265;29;20032;-74
2022/02/28 12:48:51;;;;;;;10.05;7.43;;;10.40;42.50;;;;;;4932182;29;20051;-74
2022/02/28 12:51:26;;;;;;;11.90;8.93;;;10.30;42.40;;;;;;4940305;29;20058;-74
2022/02/28 12:54:06;;;;;;;8.68;7.82;;;10.30;43.50;;;;;;4934187;29;20040;-74
2022/02/28 12:56:45;;;;;;;8.90;6.80;;;10.40;42.00;;;;;;4935104;29;20028;-75
2022/02/28 12:59:12;;;;;;;11.60;9.48;;;10.20;42.00;;;;;;4950471;29;20046;-74